createdAt,value
2024-01-26T00:02:15.460Z,101022.38
2024-01-26T00:05:18.489Z,101021.06
2024-01-26T00:08:21.400Z,101014.81
2024-01-26T00:11:24.696Z,101024.13
2024-01-26T00:14:27.912Z,101018.22
2024-01-26T00:17:30.791Z,101014.81
2024-01-26T00:20:33.489Z,101016.94
2024-01-26T00:23:36.810Z,101015.12
2024-01-26T00:26:39.481Z,101028.28
2024-01-26T00:29:42.327Z,101023.47
2024-01-26T00:32:44.981Z,101020.72
2024-01-26T00:35:47.905Z,101020.13
2024-01-26T00:38:50.464Z,101030.88
2024-01-26T00:41:53.362Z,101034.22
2024-01-26T00:44:55.924Z,101036.94
2024-01-26T00:47:59.082Z,101037.91
2024-01-26T00:51:02.702Z,101046.00
2024-01-26T00:54:05.746Z,101038.59
2024-01-26T00:57:08.420Z,101031.00
2024-01-26T01:00:12.111Z,101028.53
2024-01-26T01:03:15.389Z,101015.72
2024-01-26T01:06:18.410Z,101015.59
2024-01-26T01:09:20.980Z,101012.63
2024-01-26T01:12:24.005Z,101009.06
2024-01-26T01:15:26.574Z,101017.94
2024-01-26T01:18:29.836Z,101009.78
2024-01-26T01:21:32.524Z,101026.06
2024-01-26T01:24:35.346Z,101023.69
2024-01-26T01:27:37.915Z,101036.28
2024-01-26T01:30:40.743Z,101040.78
2024-01-26T01:33:43.686Z,101043.41
2024-01-26T01:36:46.677Z,101036.19
2024-01-26T01:39:50.210Z,101033.91
2024-01-26T01:42:53.028Z,101036.53
2024-01-26T01:45:55.747Z,101027.94
2024-01-26T01:48:58.933Z,101041.56
2024-01-26T01:52:04.980Z,101024.81
2024-01-26T01:55:11.323Z,101009.78
2024-01-26T01:58:16.988Z,101023.53
2024-01-26T02:01:20.411Z,101017.97
2024-01-26T02:04:23.471Z,101020.06
2024-01-26T02:07:26.246Z,101011.16
2024-01-26T02:10:29.221Z,101024.41
2024-01-26T02:13:31.906Z,101017.69
2024-01-26T02:16:34.736Z,101034.44
2024-01-26T02:19:37.350Z,101028.50
2024-01-26T02:22:40.304Z,101037.28
2024-01-26T02:25:42.895Z,101040.87
2024-01-26T02:28:45.798Z,101049.25
2024-01-26T02:31:48.422Z,101048.84
2024-01-26T02:34:51.405Z,101035.19
2024-01-26T02:37:53.994Z,101050.19
2024-01-26T02:40:56.843Z,101037.06
2024-01-26T02:43:59.505Z,101031.50
2024-01-26T02:47:02.453Z,101033.37
2024-01-26T02:50:06.397Z,101038.44
2024-01-26T02:53:09.461Z,101041.72
2024-01-26T02:56:12.146Z,101038.38
2024-01-26T02:59:14.977Z,101041.00
2024-01-26T03:02:17.558Z,101051.13
2024-01-26T03:05:20.411Z,101041.38
2024-01-26T03:08:23.024Z,101040.87
2024-01-26T03:11:39.641Z,101052.06
2024-01-26T03:14:42.577Z,101061.19
2024-01-26T03:17:45.637Z,101046.59
2024-01-26T03:20:51.254Z,101050.25
2024-01-26T03:23:54.257Z,101065.91
2024-01-26T03:26:56.903Z,101062.44
2024-01-26T03:29:59.769Z,101060.28
2024-01-26T03:33:02.793Z,101051.94
2024-01-26T03:36:06.549Z,101029.59
2024-01-26T03:39:10.954Z,101023.84
2024-01-26T03:42:14.213Z,101031.22
2024-01-26T03:45:16.936Z,101023.13
2024-01-26T03:48:20.011Z,101015.34
2024-01-26T03:51:22.717Z,101033.41
2024-01-26T03:54:25.679Z,101039.59
2024-01-26T03:57:28.235Z,101035.62
2024-01-26T04:00:31.072Z,101054.19
2024-01-26T04:03:34.318Z,101060.69
2024-01-26T04:06:43.424Z,101068.56
2024-01-26T04:09:46.422Z,101083.66
2024-01-26T04:12:48.970Z,101084.50
2024-01-26T04:15:51.843Z,101106.72
2024-01-26T04:18:54.598Z,101114.56
2024-01-26T04:21:58.135Z,101125.19
2024-01-26T04:25:00.709Z,101118.34
2024-01-26T04:28:04.136Z,101129.72
2024-01-26T04:31:06.745Z,101137.78
2024-01-26T04:34:10.529Z,101136.31
2024-01-26T04:37:13.311Z,101149.03
2024-01-26T04:40:16.155Z,101149.56
2024-01-26T04:43:20.074Z,101153.72
2024-01-26T04:46:22.928Z,101154.28
2024-01-26T04:49:25.752Z,101160.88
2024-01-26T04:52:29.857Z,101160.66
2024-01-26T04:55:32.594Z,101156.69
2024-01-26T04:58:35.512Z,101157.34
2024-01-26T05:01:37.956Z,101157.97
2024-01-26T05:04:40.950Z,101142.53
2024-01-26T05:07:43.534Z,101156.09
2024-01-26T05:10:46.418Z,101153.88
2024-01-26T05:13:48.984Z,101153.88
2024-01-26T05:16:51.798Z,101154.41
2024-01-26T05:19:55.800Z,101164.03
2024-01-26T05:22:58.718Z,101162.25
2024-01-26T05:26:01.516Z,101165.59
2024-01-26T05:29:04.431Z,101173.16
2024-01-26T05:32:07.432Z,101177.47
2024-01-26T05:35:11.120Z,101165.19
2024-01-26T05:38:13.756Z,101172.84
2024-01-26T05:41:16.748Z,101165.06
2024-01-26T05:44:19.553Z,101158.56
2024-01-26T05:47:22.329Z,101157.09
2024-01-26T05:50:25.011Z,101152.50
2024-01-26T05:53:27.976Z,101151.44
2024-01-26T05:56:30.616Z,101146.72
2024-01-26T05:59:33.714Z,101141.69
2024-01-26T06:02:36.404Z,101149.16
2024-01-26T06:05:39.379Z,101151.25
2024-01-26T06:08:45.674Z,101139.38
2024-01-26T06:11:49.130Z,101156.63
2024-01-26T06:14:51.817Z,101147.28
2024-01-26T06:17:54.831Z,101160.38
2024-01-26T06:20:57.414Z,101156.59
2024-01-26T06:24:00.890Z,101147.06
2024-01-26T06:27:03.909Z,101143.72
2024-01-26T06:30:07.471Z,101146.03
2024-01-26T06:33:10.361Z,101153.88
2024-01-26T06:36:13.871Z,101138.00
2024-01-26T06:39:16.849Z,101159.22
2024-01-26T06:42:26.459Z,101171.19
2024-01-26T06:45:29.144Z,101177.59
2024-01-26T06:48:32.160Z,101178.34
2024-01-26T06:51:34.886Z,101182.63
2024-01-26T06:54:39.303Z,101184.53
2024-01-26T06:57:41.923Z,101184.22
2024-01-26T07:00:45.370Z,101181.59
2024-01-26T07:03:48.290Z,101189.16
2024-01-26T07:06:51.273Z,101173.72
2024-01-26T07:09:53.969Z,101176.88
2024-01-26T07:12:56.906Z,101179.28
2024-01-26T07:15:59.539Z,101184.53
2024-01-26T07:19:02.966Z,101189.78
2024-01-26T07:22:06.315Z,101192.81
2024-01-26T07:25:13.028Z,101186.31
2024-01-26T07:28:15.730Z,101193.16
2024-01-26T07:31:19.702Z,101192.09
2024-01-26T07:34:22.468Z,101206.06
2024-01-26T07:37:25.427Z,101198.41
2024-01-26T07:40:28.131Z,101213.41
2024-01-26T07:43:31.185Z,101211.09
2024-01-26T07:46:34.174Z,101210.25
2024-01-26T07:49:37.106Z,101218.97
2024-01-26T07:52:41.211Z,101221.81
2024-01-26T07:55:44.262Z,101241.09
2024-01-26T07:58:47.164Z,101237.94
2024-01-26T08:01:50.212Z,101261.16
2024-01-26T08:04:57.620Z,101246.34
2024-01-26T08:08:00.536Z,101252.56
2024-01-26T08:11:03.962Z,101239.31
2024-01-26T08:14:06.652Z,101246.16
2024-01-26T08:17:09.941Z,101238.69
2024-01-26T08:20:13.396Z,101238.28
2024-01-26T08:23:17.126Z,101234.91
2024-01-26T08:26:20.079Z,101224.13
2024-01-26T08:29:26.154Z,101227.38
2024-01-26T08:32:28.928Z,101228.00
2024-01-26T08:35:32.306Z,101229.47
2024-01-26T08:38:37.258Z,101220.66
2024-01-26T08:41:41.193Z,101213.06
2024-01-26T08:44:43.891Z,101213.59
2024-01-26T08:47:46.863Z,101224.50
2024-01-26T08:50:49.612Z,101226.19
2024-01-26T08:53:53.325Z,101231.75
2024-01-26T08:56:57.324Z,101224.06
2024-01-26T09:00:01.451Z,101237.09
2024-01-26T09:03:05.402Z,101244.09
2024-01-26T09:06:09.501Z,101250.94
2024-01-26T09:09:13.313Z,101260.28
2024-01-26T09:12:16.339Z,101260.69
2024-01-26T09:15:19.243Z,101252.69
2024-01-26T09:18:22.347Z,101250.97
2024-01-26T09:21:25.013Z,101246.31
2024-01-26T09:24:28.012Z,101242.75
2024-01-26T09:27:31.403Z,101221.28
2024-01-26T09:30:34.331Z,101243.34
2024-01-26T09:33:37.244Z,101252.38
2024-01-26T09:36:40.494Z,101254.06
2024-01-26T09:39:43.587Z,101247.50
2024-01-26T09:42:46.591Z,101247.19
2024-01-26T09:45:53.716Z,101251.88
2024-01-26T09:48:58.840Z,101265.91
2024-01-26T09:52:01.912Z,101274.66
2024-01-26T09:55:07.087Z,101271.28
2024-01-26T09:58:10.222Z,101256.97
2024-01-26T10:01:20.857Z,101254.84
2024-01-26T10:04:24.184Z,101254.94
2024-01-26T10:07:26.805Z,101248.25
2024-01-26T10:10:29.783Z,101246.38
2024-01-26T10:13:33.077Z,101249.50
2024-01-26T10:16:36.093Z,101245.94
2024-01-26T10:19:38.796Z,101242.84
2024-01-26T10:22:43.439Z,101242.00
2024-01-26T10:25:46.465Z,101235.88
2024-01-26T10:28:51.606Z,101238.81
2024-01-26T10:31:55.921Z,101234.94
2024-01-26T10:35:06.485Z,101228.91
2024-01-26T10:38:12.110Z,101233.69
2024-01-26T10:41:20.503Z,101231.91
2024-01-26T10:44:24.634Z,101229.66
2024-01-26T10:47:28.512Z,101236.09
2024-01-26T10:50:31.636Z,101228.09
2024-01-26T10:53:35.275Z,101232.78
2024-01-26T10:56:38.910Z,101229.16
2024-01-26T10:59:44.761Z,101230.00
2024-01-26T11:02:47.652Z,101232.66
2024-01-26T11:05:52.093Z,101231.81
2024-01-26T11:12:28.064Z,101238.25
2024-01-26T11:15:31.397Z,101231.94
2024-01-26T11:18:38.568Z,101228.44
2024-01-26T11:21:45.958Z,101217.78
2024-01-26T11:24:48.825Z,101206.50
2024-01-26T11:28:00.281Z,101215.12
2024-01-26T11:31:03.822Z,101209.56
2024-01-26T11:34:17.754Z,101203.69
2024-01-26T11:37:20.737Z,101200.69
2024-01-26T11:40:27.127Z,101191.06
2024-01-26T11:43:31.265Z,101192.59
2024-01-26T11:46:35.718Z,101199.06
2024-01-26T11:49:40.458Z,101201.97
2024-01-26T11:52:43.574Z,101198.78
2024-01-26T11:55:47.802Z,101195.06
2024-01-26T11:58:52.765Z,101191.31
2024-01-26T12:01:58.536Z,101196.88
2024-01-26T12:05:02.088Z,101192.75
2024-01-26T12:08:06.538Z,101186.47
2024-01-26T12:11:12.144Z,101167.59
2024-01-26T12:14:14.960Z,101153.44
2024-01-26T12:17:18.181Z,101148.16
2024-01-26T12:20:20.747Z,101139.22
2024-01-26T12:23:23.944Z,101143.50
2024-01-26T12:26:26.535Z,101145.50
2024-01-26T12:29:30.626Z,101153.09
2024-01-26T12:32:33.398Z,101143.50
2024-01-26T12:35:41.433Z,101146.88
2024-01-26T12:38:44.157Z,101137.44
2024-01-26T12:41:47.075Z,101130.53
2024-01-26T12:44:49.658Z,101139.56
2024-01-26T12:47:52.679Z,101133.16
2024-01-26T12:50:55.423Z,101117.38
2024-01-26T12:53:58.340Z,101121.47
2024-01-26T12:57:01.393Z,101123.16
2024-01-26T13:00:04.787Z,101119.13
2024-01-26T13:03:07.739Z,101103.78
2024-01-26T13:06:12.134Z,101089.50
2024-01-26T13:09:16.669Z,101090.34
2024-01-26T13:12:19.786Z,101092.69
2024-01-26T13:15:22.871Z,101089.97
2024-01-26T13:18:30.748Z,101089.62
2024-01-26T13:21:35.491Z,101097.69
2024-01-26T13:24:38.418Z,101098.28
2024-01-26T13:27:41.003Z,101092.28
2024-01-26T13:30:43.936Z,101080.31
2024-01-26T13:33:46.755Z,101084.84
2024-01-26T13:36:49.766Z,101085.31
2024-01-26T13:39:52.313Z,101082.41
2024-01-26T13:42:55.389Z,101090.81
2024-01-26T13:45:59.234Z,101095.09
2024-01-26T13:49:04.331Z,101094.47
2024-01-26T13:52:06.926Z,101083.53
2024-01-26T13:55:10.059Z,101077.87
2024-01-26T13:58:12.636Z,101083.69
2024-01-26T14:01:16.902Z,101088.59
2024-01-26T14:04:20.804Z,101076.12
2024-01-26T14:07:23.762Z,101080.87
2024-01-26T14:10:26.828Z,101084.13
2024-01-26T14:13:32.175Z,101102.19
2024-01-26T14:16:35.936Z,101099.78
2024-01-26T14:19:38.599Z,101096.94
2024-01-26T14:22:41.656Z,101092.59
2024-01-26T14:25:44.252Z,101087.16
2024-01-26T14:28:48.026Z,101083.56
2024-01-26T14:31:53.403Z,101074.78
2024-01-26T14:34:56.267Z,101073.00
2024-01-26T14:37:59.012Z,101070.59
2024-01-26T14:41:02.112Z,101064.06
2024-01-26T14:44:05.838Z,101071.66
2024-01-26T14:47:08.725Z,101068.31
2024-01-26T14:50:11.842Z,101072.00
2024-01-26T14:53:15.005Z,101071.28
2024-01-26T14:56:17.660Z,101069.19
2024-01-26T14:59:20.576Z,101069.47
2024-01-26T15:02:23.367Z,101060.59
2024-01-26T15:05:26.870Z,101064.66
2024-01-26T15:08:30.633Z,101062.59
2024-01-26T15:11:33.544Z,101047.53
2024-01-26T15:14:36.337Z,101051.38
2024-01-26T15:17:39.500Z,101041.81
2024-01-26T15:20:42.360Z,101050.94
2024-01-26T15:23:45.298Z,101042.88
2024-01-26T15:26:48.235Z,101036.06
2024-01-26T15:29:51.397Z,101027.34
2024-01-26T15:32:54.225Z,101038.75
2024-01-26T15:35:57.663Z,101041.38
2024-01-26T15:39:00.397Z,101050.50
2024-01-26T15:42:05.227Z,101044.50
2024-01-26T15:45:08.942Z,101052.47
2024-01-26T15:48:12.268Z,101042.88
2024-01-26T15:51:15.090Z,101054.97
2024-01-26T15:54:18.194Z,101047.91
2024-01-26T15:57:20.779Z,101041.16
2024-01-26T16:00:23.928Z,101038.66
2024-01-26T16:03:27.151Z,101031.41
2024-01-26T16:06:29.933Z,101022.06
2024-01-26T16:09:33.070Z,101020.97
2024-01-26T16:12:37.554Z,101026.25
2024-01-26T16:15:40.857Z,101025.47
2024-01-26T16:18:45.674Z,101017.56
2024-01-26T16:21:48.788Z,101017.00
2024-01-26T16:24:51.346Z,101021.53
2024-01-26T16:27:54.198Z,101011.28
2024-01-26T16:30:58.191Z,101008.38
2024-01-26T16:34:03.130Z,100998.09
2024-01-26T16:37:05.885Z,100996.63
2024-01-26T16:40:10.778Z,100996.03
2024-01-26T16:43:14.176Z,100978.81
2024-01-26T16:46:17.273Z,100973.06
2024-01-26T16:49:19.985Z,100968.25
2024-01-26T16:52:23.410Z,100973.28
2024-01-26T16:55:26.254Z,100970.78
2024-01-26T16:58:29.232Z,100970.50
2024-01-26T17:01:34.463Z,100958.91
2024-01-26T17:04:37.668Z,100954.19
2024-01-26T17:07:40.337Z,100954.25
2024-01-26T17:10:43.159Z,100949.81
2024-01-26T17:13:45.831Z,100952.72
2024-01-26T17:16:48.725Z,100942.88
2024-01-26T17:19:54.558Z,100946.50
2024-01-26T17:22:57.637Z,100938.13
2024-01-26T17:26:02.382Z,100945.03
2024-01-26T17:29:05.227Z,100954.75
2024-01-26T17:32:11.607Z,100953.09
2024-01-26T17:35:14.541Z,100955.47
2024-01-26T17:38:18.642Z,100958.09
2024-01-26T17:41:21.563Z,100964.66
2024-01-26T17:44:25.572Z,100960.25
2024-01-26T17:47:28.681Z,100960.75
2024-01-26T17:50:32.079Z,100944.19
2024-01-26T17:53:35.029Z,100930.91
2024-01-26T17:56:37.678Z,100938.59
2024-01-26T17:59:44.240Z,100947.38
2024-01-26T18:02:47.290Z,100948.34
2024-01-26T18:05:51.209Z,100947.38
2024-01-26T18:08:53.960Z,100937.53
2024-01-26T18:11:56.940Z,100923.84
2024-01-26T18:14:59.446Z,100911.31
2024-01-26T18:18:02.418Z,100915.13
2024-01-26T18:21:05.204Z,100903.53
2024-01-26T18:24:08.814Z,100908.94
2024-01-26T18:27:11.564Z,100907.38
2024-01-26T18:30:14.830Z,100903.22
2024-01-26T18:33:18.462Z,100908.50
2024-01-26T18:36:21.496Z,100905.00
2024-01-26T18:39:24.417Z,100904.31
2024-01-26T18:42:27.483Z,100884.19
2024-01-26T18:45:30.563Z,100876.53
2024-01-26T18:48:33.694Z,100865.69
2024-01-26T18:51:36.540Z,100862.22
2024-01-26T18:54:40.073Z,100864.00
2024-01-26T18:57:44.251Z,100854.81
2024-01-26T19:00:47.742Z,100845.78
2024-01-26T19:03:52.231Z,100845.81
2024-01-26T19:06:57.448Z,100851.53
2024-01-26T19:10:00.231Z,100837.09
2024-01-26T19:13:06.497Z,100831.81
2024-01-26T19:16:11.588Z,100832.16
2024-01-26T19:19:14.592Z,100833.34
2024-01-26T19:22:17.466Z,100835.81
2024-01-26T19:25:20.762Z,100830.41
2024-01-26T19:28:23.344Z,100826.66
2024-01-26T19:31:27.628Z,100838.59
2024-01-26T19:34:31.978Z,100823.47
2024-01-26T19:37:35.678Z,100829.75
2024-01-26T19:40:38.351Z,100832.47
2024-01-26T19:43:41.280Z,100821.09
2024-01-26T19:46:45.044Z,100806.37
2024-01-26T19:49:48.133Z,100793.06
2024-01-26T19:52:51.273Z,100794.44
2024-01-26T19:55:54.200Z,100810.56
2024-01-26T19:58:58.631Z,100803.56
2024-01-26T20:02:01.551Z,100796.59
2024-01-26T20:05:06.163Z,100789.37
2024-01-26T20:08:09.228Z,100800.06
2024-01-26T20:11:12.427Z,100804.03
2024-01-26T20:14:15.233Z,100796.91
2024-01-26T20:17:19.265Z,100789.47
2024-01-26T20:20:22.115Z,100785.63
2024-01-26T20:23:26.487Z,100781.28
2024-01-26T20:26:29.448Z,100776.22
2024-01-26T20:29:32.621Z,100769.53
2024-01-26T20:32:35.363Z,100775.16
2024-01-26T20:35:38.273Z,100791.41
2024-01-26T20:38:40.975Z,100775.34
2024-01-26T20:41:43.905Z,100771.94
2024-01-26T20:44:46.542Z,100781.12
2024-01-26T20:47:49.670Z,100776.44
2024-01-26T20:50:52.732Z,100768.53
2024-01-26T20:53:55.747Z,100768.28
2024-01-26T20:56:58.298Z,100781.78
2024-01-26T21:00:01.327Z,100789.28
2024-01-26T21:03:04.432Z,100780.53
2024-01-26T21:06:07.573Z,100778.84
2024-01-26T21:09:10.269Z,100786.88
2024-01-26T21:12:13.191Z,100773.09
2024-01-26T21:15:16.117Z,100766.81
2024-01-26T21:18:19.167Z,100757.16
2024-01-26T21:21:21.889Z,100736.09
2024-01-26T21:24:24.977Z,100742.50
2024-01-26T21:27:27.613Z,100738.63
2024-01-26T21:30:30.820Z,100737.69
2024-01-26T21:33:33.658Z,100734.34
2024-01-26T21:36:36.859Z,100723.97
2024-01-26T21:39:39.621Z,100722.84
2024-01-26T21:42:42.761Z,100729.22
2024-01-26T21:45:45.848Z,100721.53
2024-01-26T21:48:49.019Z,100715.06
2024-01-26T21:51:57.594Z,100721.53
2024-01-26T21:55:01.388Z,100724.28
2024-01-26T21:58:04.331Z,100713.03
2024-01-26T22:01:13.306Z,100704.53
2024-01-26T22:04:16.415Z,100712.31
2024-01-26T22:07:20.177Z,100703.25
2024-01-26T22:10:23.102Z,100703.06
2024-01-26T22:13:26.242Z,100706.47
2024-01-26T22:16:29.240Z,100705.13
2024-01-26T22:19:31.917Z,100699.28
2024-01-26T22:22:35.015Z,100707.03
2024-01-26T22:25:37.827Z,100708.72
2024-01-26T22:28:40.732Z,100717.34
2024-01-26T22:31:44.527Z,100731.78
2024-01-26T22:34:47.620Z,100728.44
2024-01-26T22:37:50.244Z,100737.06
2024-01-26T22:40:53.239Z,100729.00
2024-01-26T22:43:56.791Z,100728.44
2024-01-26T22:46:59.907Z,100715.53
2024-01-26T22:50:02.814Z,100723.28
2024-01-26T22:53:05.778Z,100716.00
2024-01-26T22:56:09.169Z,100718.25
2024-01-26T22:59:12.026Z,100719.78
2024-01-26T23:02:14.899Z,100725.06
2024-01-26T23:05:20.208Z,100739.31
2024-01-26T23:08:24.377Z,100757.34
2024-01-26T23:11:28.693Z,100777.72
2024-01-26T23:14:31.305Z,100768.03
2024-01-26T23:17:34.167Z,100774.50
2024-01-26T23:20:36.729Z,100765.97
2024-01-26T23:23:39.711Z,100761.12
2024-01-26T23:26:42.407Z,100760.53
2024-01-26T23:29:45.842Z,100761.97
2024-01-26T23:32:48.542Z,100763.81
2024-01-26T23:35:51.817Z,100752.75
2024-01-26T23:38:54.608Z,100748.56
2024-01-26T23:41:57.620Z,100754.81
2024-01-26T23:45:00.369Z,100748.28
2024-01-26T23:48:04.231Z,100757.34
2024-01-26T23:51:07.184Z,100759.16
2024-01-26T23:54:11.578Z,100767.19
2024-01-26T23:57:14.269Z,100771.88
